sensor_id;sensor_type;location;lat;lon;timestamp;pressure;altitude;pressure_sealevel;temperature;humidity
66381;BME280;53177;52.648;1.214;2024-01-16T00:00:55;100582.50;;;-2.28;91.60
66381;BME280;53177;52.648;1.214;2024-01-16T00:03:21;100589.31;;;-2.33;91.58
66381;BME280;53177;52.648;1.214;2024-01-16T00:05:47;100573.91;;;-2.27;91.67
66381;BME280;53177;52.648;1.214;2024-01-16T00:08:12;100569.69;;;-2.24;90.90
66381;BME280;53177;52.648;1.214;2024-01-16T00:10:38;100576.50;;;-2.27;91.22
66381;BME280;53177;52.648;1.214;2024-01-16T00:13:03;100567.63;;;-2.37;90.78
66381;BME280;53177;52.648;1.214;2024-01-16T00:15:29;100565.00;;;-2.38;91.96
66381;BME280;53177;52.648;1.214;2024-01-16T00:17:54;100564.19;;;-2.36;91.94
66381;BME280;53177;52.648;1.214;2024-01-16T00:20:20;100554.72;;;-2.35;90.95
66381;BME280;53177;52.648;1.214;2024-01-16T00:22:48;100557.38;;;-2.32;91.28
66381;BME280;53177;52.648;1.214;2024-01-16T00:25:14;100551.25;;;-2.36;91.48
66381;BME280;53177;52.648;1.214;2024-01-16T00:27:39;100558.09;;;-2.38;91.23
66381;BME280;53177;52.648;1.214;2024-01-16T00:30:05;100563.34;;;-2.35;90.78
66381;BME280;53177;52.648;1.214;2024-01-16T00:32:31;100559.59;;;-2.46;90.75
66381;BME280;53177;52.648;1.214;2024-01-16T00:34:57;100545.78;;;-2.47;92.20
66381;BME280;53177;52.648;1.214;2024-01-16T00:37:23;100541.44;;;-2.48;91.90
66381;BME280;53177;52.648;1.214;2024-01-16T00:39:48;100535.41;;;-2.48;92.32
66381;BME280;53177;52.648;1.214;2024-01-16T00:42:14;100528.75;;;-2.38;92.38
66381;BME280;53177;52.648;1.214;2024-01-16T00:44:41;100526.84;;;-2.46;91.93
66381;BME280;53177;52.648;1.214;2024-01-16T00:47:07;100534.81;;;-2.38;91.73
66381;BME280;53177;52.648;1.214;2024-01-16T00:49:32;100540.78;;;-2.40;91.75
66381;BME280;53177;52.648;1.214;2024-01-16T00:51:58;100537.34;;;-2.39;91.26
66381;BME280;53177;52.648;1.214;2024-01-16T00:54:23;100537.34;;;-2.39;91.33
66381;BME280;53177;52.648;1.214;2024-01-16T00:56:49;100531.22;;;-2.43;91.47
66381;BME280;53177;52.648;1.214;2024-01-16T00:59:15;100530.59;;;-2.34;91.21
66381;BME280;53177;52.648;1.214;2024-01-16T01:01:41;100534.66;;;-2.44;91.03
66381;BME280;53177;52.648;1.214;2024-01-16T01:04:06;100529.47;;;-2.44;91.22
66381;BME280;53177;52.648;1.214;2024-01-16T01:06:32;100538.84;;;-2.48;91.34
66381;BME280;53177;52.648;1.214;2024-01-16T01:08:57;100535.41;;;-2.48;90.72
66381;BME280;53177;52.648;1.214;2024-01-16T01:11:24;100531.09;;;-2.48;90.26
66381;BME280;53177;52.648;1.214;2024-01-16T01:13:50;100521.66;;;-2.46;91.01
66381;BME280;53177;52.648;1.214;2024-01-16T01:16:15;100524.19;;;-2.49;91.10
66381;BME280;53177;52.648;1.214;2024-01-16T01:18:42;100532.06;;;-2.44;90.82
66381;BME280;53177;52.648;1.214;2024-01-16T01:21:08;100525.97;;;-2.46;90.78
66381;BME280;53177;52.648;1.214;2024-01-16T01:23:34;100522.53;;;-2.45;90.99
66381;BME280;53177;52.648;1.214;2024-01-16T01:26:00;100522.63;;;-2.42;90.75
66381;BME280;53177;52.648;1.214;2024-01-16T01:28:26;100526.69;;;-2.52;91.55
66381;BME280;53177;52.648;1.214;2024-01-16T01:30:51;100522.25;;;-2.56;92.23
66381;BME280;53177;52.648;1.214;2024-01-16T01:33:17;100512.00;;;-2.51;92.54
66381;BME280;53177;52.648;1.214;2024-01-16T01:35:43;100517.38;;;-2.45;91.46
66381;BME280;53177;52.648;1.214;2024-01-16T01:38:09;100514.59;;;-2.51;91.45
66381;BME280;53177;52.648;1.214;2024-01-16T01:40:34;100513.81;;;-2.49;90.78
66381;BME280;53177;52.648;1.214;2024-01-16T01:43:17;100512.88;;;-2.51;90.83
66381;BME280;53177;52.648;1.214;2024-01-16T01:45:43;100521.31;;;-2.59;91.42
66381;BME280;53177;52.648;1.214;2024-01-16T01:48:09;100522.97;;;-2.61;92.18
66381;BME280;53177;52.648;1.214;2024-01-16T01:50:35;100512.75;;;-2.57;91.28
66381;BME280;53177;52.648;1.214;2024-01-16T01:53:00;100511.84;;;-2.57;91.53
66381;BME280;53177;52.648;1.214;2024-01-16T01:55:27;100508.38;;;-2.59;91.72
66381;BME280;53177;52.648;1.214;2024-01-16T01:57:52;100515.25;;;-2.60;91.57
66381;BME280;53177;52.648;1.214;2024-01-16T02:00:18;100510.03;;;-2.61;92.35
66381;BME280;53177;52.648;1.214;2024-01-16T02:02:45;100515.28;;;-2.58;91.28
66381;BME280;53177;52.648;1.214;2024-01-16T02:05:11;100520.50;;;-2.57;92.84
66381;BME280;53177;52.648;1.214;2024-01-16T02:07:37;100516.81;;;-2.66;92.69
66381;BME280;53177;52.648;1.214;2024-01-16T02:10:03;100515.19;;;-2.61;92.21
66381;BME280;53177;52.648;1.214;2024-01-16T02:12:29;100513.56;;;-2.58;91.75
66381;BME280;53177;52.648;1.214;2024-01-16T02:14:55;100506.75;;;-2.56;92.02
66381;BME280;53177;52.648;1.214;2024-01-16T02:17:20;100507.56;;;-2.57;92.23
66381;BME280;53177;52.648;1.214;2024-01-16T02:19:46;100510.16;;;-2.57;91.47
66381;BME280;53177;52.648;1.214;2024-01-16T02:22:16;100512.97;;;-2.48;90.25
66381;BME280;53177;52.648;1.214;2024-01-16T02:24:45;100500.81;;;-2.52;90.56
66381;BME280;53177;52.648;1.214;2024-01-16T02:27:10;100494.84;;;-2.48;90.37
66381;BME280;53177;52.648;1.214;2024-01-16T02:29:41;100498.50;;;-2.39;90.39
66381;BME280;53177;52.648;1.214;2024-01-16T02:32:07;100501.78;;;-2.47;90.50
66381;BME280;53177;52.648;1.214;2024-01-16T02:34:33;100495.78;;;-2.46;90.84
66381;BME280;53177;52.648;1.214;2024-01-16T02:36:58;100500.91;;;-2.47;91.19
66381;BME280;53177;52.648;1.214;2024-01-16T02:39:24;100493.19;;;-2.46;90.61
66381;BME280;53177;52.648;1.214;2024-01-16T02:41:50;100484.69;;;-2.40;90.95
66381;BME280;53177;52.648;1.214;2024-01-16T02:44:16;100483.78;;;-2.42;91.07
66381;BME280;53177;52.648;1.214;2024-01-16T02:46:41;100477.78;;;-2.41;89.63
66381;BME280;53177;52.648;1.214;2024-01-16T02:49:06;100481.06;;;-2.48;90.90
66381;BME280;53177;52.648;1.214;2024-01-16T02:51:32;100479.41;;;-2.44;90.29
66381;BME280;53177;52.648;1.214;2024-01-16T02:53:58;100477.59;;;-2.47;91.62
66381;BME280;53177;52.648;1.214;2024-01-16T02:56:23;100475.63;;;-2.57;91.29
66381;BME280;53177;52.648;1.214;2024-01-16T02:58:49;100470.44;;;-2.57;92.21
66381;BME280;53177;52.648;1.214;2024-01-16T03:01:15;100462.66;;;-2.59;91.05
66381;BME280;53177;52.648;1.214;2024-01-16T03:03:41;100466.16;;;-2.57;91.61
66381;BME280;53177;52.648;1.214;2024-01-16T03:06:06;100461.13;;;-2.51;91.49
66381;BME280;53177;52.648;1.214;2024-01-16T03:08:32;100455.38;;;-2.39;91.40
66381;BME280;53177;52.648;1.214;2024-01-16T03:10:57;100458.66;;;-2.46;91.31
66381;BME280;53177;52.648;1.214;2024-01-16T03:13:23;100460.34;;;-2.48;91.44
66381;BME280;53177;52.648;1.214;2024-01-16T03:15:48;100453.66;;;-2.38;90.80
66381;BME280;53177;52.648;1.214;2024-01-16T03:18:13;100459.75;;;-2.36;90.49
66381;BME280;53177;52.648;1.214;2024-01-16T03:20:39;100455.25;;;-2.45;90.81
66381;BME280;53177;52.648;1.214;2024-01-16T03:23:04;100456.13;;;-2.43;92.44
66381;BME280;53177;52.648;1.214;2024-01-16T03:25:30;100448.44;;;-2.41;91.75
66381;BME280;53177;52.648;1.214;2024-01-16T03:27:55;100452.47;;;-2.51;90.25
66381;BME280;53177;52.648;1.214;2024-01-16T03:30:22;100452.66;;;-2.45;90.66
66381;BME280;53177;52.648;1.214;2024-01-16T03:32:47;100456.91;;;-2.47;91.05
66381;BME280;53177;52.648;1.214;2024-01-16T03:35:12;100446.53;;;-2.47;91.38
66381;BME280;53177;52.648;1.214;2024-01-16T03:37:38;100448.19;;;-2.51;91.29
66381;BME280;53177;52.648;1.214;2024-01-16T03:40:04;100445.75;;;-2.44;90.62
66381;BME280;53177;52.648;1.214;2024-01-16T03:42:30;100446.66;;;-2.44;90.23
66381;BME280;53177;52.648;1.214;2024-01-16T03:44:55;100445.50;;;-2.55;90.31
66381;BME280;53177;52.648;1.214;2024-01-16T03:47:21;100447.28;;;-2.53;90.03
66381;BME280;53177;52.648;1.214;2024-01-16T03:49:49;100452.47;;;-2.53;90.25
66381;BME280;53177;52.648;1.214;2024-01-16T03:52:15;100448.09;;;-2.55;91.05
66381;BME280;53177;52.648;1.214;2024-01-16T03:54:41;100442.81;;;-2.58;90.91
66381;BME280;53177;52.648;1.214;2024-01-16T03:57:06;100439.31;;;-2.60;91.65
66381;BME280;53177;52.648;1.214;2024-01-16T03:59:32;100433.41;;;-2.55;91.30
66381;BME280;53177;52.648;1.214;2024-01-16T04:01:57;100432.72;;;-2.48;91.59
66381;BME280;53177;52.648;1.214;2024-01-16T04:04:23;100424.00;;;-2.51;92.28
66381;BME280;53177;52.648;1.214;2024-01-16T04:06:48;100418.06;;;-2.47;91.46
66381;BME280;53177;52.648;1.214;2024-01-16T04:09:13;100421.59;;;-2.43;91.20
66381;BME280;53177;52.648;1.214;2024-01-16T04:11:39;100411.06;;;-2.51;91.48
66381;BME280;53177;52.648;1.214;2024-01-16T04:14:05;100407.69;;;-2.49;90.87
66381;BME280;53177;52.648;1.214;2024-01-16T04:16:30;100408.75;;;-2.40;90.12
66381;BME280;53177;52.648;1.214;2024-01-16T04:18:56;100402.53;;;-2.49;90.39
66381;BME280;53177;52.648;1.214;2024-01-16T04:21:21;100405.00;;;-2.53;90.78
66381;BME280;53177;52.648;1.214;2024-01-16T04:23:47;100405.03;;;-2.52;91.00
66381;BME280;53177;52.648;1.214;2024-01-16T04:26:12;100397.97;;;-2.59;91.53
66381;BME280;53177;52.648;1.214;2024-01-16T04:28:38;100403.09;;;-2.60;91.74
66381;BME280;53177;52.648;1.214;2024-01-16T04:31:04;100399.69;;;-2.59;91.75
66381;BME280;53177;52.648;1.214;2024-01-16T04:33:30;100392.53;;;-2.68;92.15
66381;BME280;53177;52.648;1.214;2024-01-16T04:35:56;100395.94;;;-2.70;92.29
66381;BME280;53177;52.648;1.214;2024-01-16T04:38:21;100388.88;;;-2.77;92.24
66381;BME280;53177;52.648;1.214;2024-01-16T04:40:47;100389.72;;;-2.77;93.15
66381;BME280;53177;52.648;1.214;2024-01-16T04:43:12;100391.47;;;-2.77;93.43
66381;BME280;53177;52.648;1.214;2024-01-16T04:45:38;100387.88;;;-2.82;93.93
66381;BME280;53177;52.648;1.214;2024-01-16T04:48:03;100392.09;;;-2.84;94.06
66381;BME280;53177;52.648;1.214;2024-01-16T04:50:29;100387.13;;;-2.77;94.24
66381;BME280;53177;52.648;1.214;2024-01-16T04:52:58;100387.91;;;-2.81;94.34
66381;BME280;53177;52.648;1.214;2024-01-16T04:55:29;100377.59;;;-2.79;93.97
66381;BME280;53177;52.648;1.214;2024-01-16T04:57:55;100380.94;;;-2.83;94.36
66381;BME280;53177;52.648;1.214;2024-01-16T05:00:21;100377.31;;;-2.90;94.53
66381;BME280;53177;52.648;1.214;2024-01-16T05:02:47;100384.19;;;-2.90;94.20
66381;BME280;53177;52.648;1.214;2024-01-16T05:05:13;100379.84;;;-2.91;94.95
66381;BME280;53177;52.648;1.214;2024-01-16T05:07:39;100366.03;;;-2.93;95.25
66381;BME280;53177;52.648;1.214;2024-01-16T05:10:06;100366.72;;;-2.99;95.34
66381;BME280;53177;52.648;1.214;2024-01-16T05:12:32;100366.97;;;-2.90;94.83
66381;BME280;53177;52.648;1.214;2024-01-16T05:14:58;100362.94;;;-2.79;94.41
66381;BME280;53177;52.648;1.214;2024-01-16T05:17:23;100364.44;;;-2.88;94.73
66381;BME280;53177;52.648;1.214;2024-01-16T05:19:49;100367.13;;;-2.84;94.88
66381;BME280;53177;52.648;1.214;2024-01-16T05:22:14;100356.69;;;-2.87;94.81
66381;BME280;53177;52.648;1.214;2024-01-16T05:24:40;100361.88;;;-2.87;94.42
66381;BME280;53177;52.648;1.214;2024-01-16T05:27:06;100355.72;;;-2.92;94.96
66381;BME280;53177;52.648;1.214;2024-01-16T05:29:31;100360.03;;;-2.91;94.93
66381;BME280;53177;52.648;1.214;2024-01-16T05:31:57;100366.06;;;-2.92;95.54
66381;BME280;53177;52.648;1.214;2024-01-16T05:34:22;100358.34;;;-2.90;96.16
66381;BME280;53177;52.648;1.214;2024-01-16T05:36:48;100355.63;;;-2.95;95.36
66381;BME280;53177;52.648;1.214;2024-01-16T05:39:13;100352.22;;;-2.94;96.19
66381;BME280;53177;52.648;1.214;2024-01-16T05:41:40;100343.56;;;-2.95;95.74
66381;BME280;53177;52.648;1.214;2024-01-16T05:44:05;100349.75;;;-2.89;95.92
66381;BME280;53177;52.648;1.214;2024-01-16T05:46:31;100347.88;;;-2.95;95.96
66381;BME280;53177;52.648;1.214;2024-01-16T05:48:57;100355.75;;;-2.90;95.84
66381;BME280;53177;52.648;1.214;2024-01-16T05:51:23;100343.88;;;-2.82;95.17
66381;BME280;53177;52.648;1.214;2024-01-16T05:53:48;100344.72;;;-2.83;94.84
66381;BME280;53177;52.648;1.214;2024-01-16T05:56:14;100338.84;;;-2.78;95.40
66381;BME280;53177;52.648;1.214;2024-01-16T05:58:39;100344.84;;;-2.79;95.07
66381;BME280;53177;52.648;1.214;2024-01-16T06:01:05;100343.34;;;-2.69;95.18
66381;BME280;53177;52.648;1.214;2024-01-16T06:03:31;100341.59;;;-2.70;94.23
66381;BME280;53177;52.648;1.214;2024-01-16T06:05:56;100337.97;;;-2.78;94.56
66381;BME280;53177;52.648;1.214;2024-01-16T06:08:21;100340.53;;;-2.78;94.82
66381;BME280;53177;52.648;1.214;2024-01-16T06:10:47;100335.38;;;-2.78;94.65
66381;BME280;53177;52.648;1.214;2024-01-16T06:13:12;100337.13;;;-2.77;95.41
66381;BME280;53177;52.648;1.214;2024-01-16T06:15:38;100338.84;;;-2.78;94.54
66381;BME280;53177;52.648;1.214;2024-01-16T06:18:03;100331.97;;;-2.76;94.56
66381;BME280;53177;52.648;1.214;2024-01-16T06:20:29;100333.75;;;-2.73;93.87
66381;BME280;53177;52.648;1.214;2024-01-16T06:22:56;100323.50;;;-2.70;94.29
66381;BME280;53177;52.648;1.214;2024-01-16T06:25:21;100325.81;;;-2.81;93.60
66381;BME280;53177;52.648;1.214;2024-01-16T06:27:47;100329.31;;;-2.79;93.83
66381;BME280;53177;52.648;1.214;2024-01-16T06:30:12;100330.06;;;-2.83;93.85
66381;BME280;53177;52.648;1.214;2024-01-16T06:32:38;100325.72;;;-2.84;93.79
66381;BME280;53177;52.648;1.214;2024-01-16T06:35:04;100326.78;;;-2.76;93.50
66381;BME280;53177;52.648;1.214;2024-01-16T06:37:30;100315.53;;;-2.78;93.85
66381;BME280;53177;52.648;1.214;2024-01-16T06:39:56;100319.78;;;-2.81;94.12
66381;BME280;53177;52.648;1.214;2024-01-16T06:42:22;100312.78;;;-2.85;94.27
66381;BME280;53177;52.648;1.214;2024-01-16T06:44:47;100313.03;;;-2.75;94.10
66381;BME280;53177;52.648;1.214;2024-01-16T06:47:12;100310.56;;;-2.70;93.77
66381;BME280;53177;52.648;1.214;2024-01-16T06:49:38;100315.53;;;-2.78;93.81
66381;BME280;53177;52.648;1.214;2024-01-16T06:52:03;100303.50;;;-2.77;94.22
66381;BME280;53177;52.648;1.214;2024-01-16T06:54:29;100311.56;;;-2.64;92.53
66381;BME280;53177;52.648;1.214;2024-01-16T06:56:55;100303.75;;;-2.65;93.86
66381;BME280;53177;52.648;1.214;2024-01-16T06:59:20;100301.84;;;-2.74;93.70
66381;BME280;53177;52.648;1.214;2024-01-16T07:01:47;100310.31;;;-2.81;94.15
66381;BME280;53177;52.648;1.214;2024-01-16T07:04:12;100311.31;;;-2.74;94.49
66381;BME280;53177;52.648;1.214;2024-01-16T07:06:39;100305.28;;;-2.75;94.11
66381;BME280;53177;52.648;1.214;2024-01-16T07:09:05;100297.53;;;-2.73;94.46
66381;BME280;53177;52.648;1.214;2024-01-16T07:11:30;100297.53;;;-2.73;94.57
66381;BME280;53177;52.648;1.214;2024-01-16T07:13:56;100298.16;;;-2.83;93.99
66381;BME280;53177;52.648;1.214;2024-01-16T07:16:22;100301.50;;;-2.87;94.45
66381;BME280;53177;52.648;1.214;2024-01-16T07:18:47;100293.84;;;-2.83;94.91
66381;BME280;53177;52.648;1.214;2024-01-16T07:21:19;100297.28;;;-2.84;94.74
66381;BME280;53177;52.648;1.214;2024-01-16T07:23:47;100290.25;;;-2.89;93.89
66381;BME280;53177;52.648;1.214;2024-01-16T07:26:16;100300.59;;;-2.89;93.86
66381;BME280;53177;52.648;1.214;2024-01-16T07:28:42;100298.16;;;-2.83;93.95
66381;BME280;53177;52.648;1.214;2024-01-16T07:31:09;100299.97;;;-2.79;94.13
66381;BME280;53177;52.648;1.214;2024-01-16T07:33:59;100299.91;;;-2.82;94.47
66381;BME280;53177;52.648;1.214;2024-01-16T07:36:42;100300.75;;;-2.83;94.23
66381;BME280;53177;52.648;1.214;2024-01-16T07:39:08;100303.31;;;-2.83;93.48
66381;BME280;53177;52.648;1.214;2024-01-16T07:41:35;100303.25;;;-2.86;93.92
66381;BME280;53177;52.648;1.214;2024-01-16T07:44:01;100304.94;;;-2.88;94.82
66381;BME280;53177;52.648;1.214;2024-01-16T07:46:28;100305.72;;;-2.91;95.40
66381;BME280;53177;52.648;1.214;2024-01-16T07:49:03;100299.84;;;-2.84;95.41
66381;BME280;53177;52.648;1.214;2024-01-16T07:51:31;100293.81;;;-2.84;94.29
66381;BME280;53177;52.648;1.214;2024-01-16T07:54:08;100298.31;;;-2.77;94.55
66381;BME280;53177;52.648;1.214;2024-01-16T07:56:35;100297.22;;;-2.87;94.15
66381;BME280;53177;52.648;1.214;2024-01-16T07:59:01;100292.66;;;-2.97;94.62
66381;BME280;53177;52.648;1.214;2024-01-16T08:01:28;100292.59;;;-3.00;94.99
66381;BME280;53177;52.648;1.214;2024-01-16T08:03:57;100295.16;;;-3.00;95.36
66381;BME280;53177;52.648;1.214;2024-01-16T08:06:26;100296.63;;;-3.10;95.12
66381;BME280;53177;52.648;1.214;2024-01-16T08:08:52;100291.41;;;-3.13;95.73
66381;BME280;53177;52.648;1.214;2024-01-16T08:11:19;100295.41;;;-3.24;95.39
66381;BME280;53177;52.648;1.214;2024-01-16T08:13:45;100287.94;;;-3.13;95.54
66381;BME280;53177;52.648;1.214;2024-01-16T08:16:10;100285.28;;;-3.16;95.87
66381;BME280;53177;52.648;1.214;2024-01-16T08:18:46;100277.47;;;-3.18;96.47
66381;BME280;53177;52.648;1.214;2024-01-16T08:21:24;100275.00;;;-3.15;96.46
66381;BME280;53177;52.648;1.214;2024-01-16T08:23:50;100282.63;;;-3.18;96.30
66381;BME280;53177;52.648;1.214;2024-01-16T08:26:16;100286.22;;;-3.13;96.24
66381;BME280;53177;52.648;1.214;2024-01-16T08:28:42;100291.44;;;-3.11;96.68
66381;BME280;53177;52.648;1.214;2024-01-16T08:31:08;100285.22;;;-3.18;96.65
66381;BME280;53177;52.648;1.214;2024-01-16T08:33:44;100291.41;;;-3.13;96.71
66381;BME280;53177;52.648;1.214;2024-01-16T08:36:15;100296.69;;;-3.08;96.06
66381;BME280;53177;52.648;1.214;2024-01-16T08:38:41;100289.00;;;-3.05;95.89
66381;BME280;53177;52.648;1.214;2024-01-16T08:41:08;100282.06;;;-3.06;96.65
66381;BME280;53177;52.648;1.214;2024-01-16T08:43:34;100276.22;;;-2.99;96.11
66381;BME280;53177;52.648;1.214;2024-01-16T08:46:00;100277.03;;;-3.02;95.22
66381;BME280;53177;52.648;1.214;2024-01-16T08:48:28;100265.28;;;-2.89;94.42
66381;BME280;53177;52.648;1.214;2024-01-16T08:50:58;100263.66;;;-2.84;94.10
66381;BME280;53177;52.648;1.214;2024-01-16T08:53:24;100268.81;;;-2.84;94.89
66381;BME280;53177;52.648;1.214;2024-01-16T08:55:50;100268.16;;;-2.75;94.82
66381;BME280;53177;52.648;1.214;2024-01-16T08:58:15;100266.63;;;-2.67;94.70
66381;BME280;53177;52.648;1.214;2024-01-16T09:00:41;100262.59;;;-2.55;93.49
66381;BME280;53177;52.648;1.214;2024-01-16T09:03:07;100265.44;;;-2.44;94.48
66381;BME280;53177;52.648;1.214;2024-01-16T09:05:34;100264.63;;;-2.41;93.36
66381;BME280;53177;52.648;1.214;2024-01-16T09:08:04;100268.25;;;-2.33;92.77
66381;BME280;53177;52.648;1.214;2024-01-16T09:10:30;100260.72;;;-2.21;92.26
66381;BME280;53177;52.648;1.214;2024-01-16T09:12:56;100262.69;;;-2.11;92.63
66381;BME280;53177;52.648;1.214;2024-01-16T09:15:21;100261.09;;;-2.05;92.81
66381;BME280;53177;52.648;1.214;2024-01-16T09:17:47;100266.44;;;-1.96;91.85
66381;BME280;53177;52.648;1.214;2024-01-16T09:20:13;100261.50;;;-1.85;91.72
66381;BME280;53177;52.648;1.214;2024-01-16T09:22:39;100251.13;;;-1.85;92.10
66381;BME280;53177;52.648;1.214;2024-01-16T09:25:06;100251.34;;;-1.74;91.51
66381;BME280;53177;52.648;1.214;2024-01-16T09:27:32;100252.22;;;-1.72;91.22
66381;BME280;53177;52.648;1.214;2024-01-16T09:29:58;100248.16;;;-1.58;92.02
66381;BME280;53177;52.648;1.214;2024-01-16T09:32:23;100255.16;;;-1.54;91.67
66381;BME280;53177;52.648;1.214;2024-01-16T09:34:50;100246.50;;;-1.56;91.81
66381;BME280;53177;52.648;1.214;2024-01-16T09:37:16;100241.50;;;-1.44;91.52
66381;BME280;53177;52.648;1.214;2024-01-16T09:39:42;100239.88;;;-1.39;92.02
66381;BME280;53177;52.648;1.214;2024-01-16T09:42:08;100235.81;;;-1.23;91.66
66381;BME280;53177;52.648;1.214;2024-01-16T09:44:34;100229.81;;;-1.22;92.10
66381;BME280;53177;52.648;1.214;2024-01-16T09:47:01;100229.94;;;-1.13;92.08
66381;BME280;53177;52.648;1.214;2024-01-16T09:49:29;100220.75;;;-0.93;91.97
66381;BME280;53177;52.648;1.214;2024-01-16T09:51:55;100226.09;;;-0.81;91.80
66381;BME280;53177;52.648;1.214;2024-01-16T09:54:21;100222.84;;;-0.66;92.05
66381;BME280;53177;52.648;1.214;2024-01-16T09:56:48;100218.81;;;-0.46;91.45
66381;BME280;53177;52.648;1.214;2024-01-16T09:59:17;100220.72;;;-0.34;91.23
66381;BME280;53177;52.648;1.214;2024-01-16T10:01:44;100219.09;;;-0.26;90.67
66381;BME280;53177;52.648;1.214;2024-01-16T10:04:10;100209.66;;;-0.20;90.60
66381;BME280;53177;52.648;1.214;2024-01-16T10:06:37;100211.56;;;-0.04;90.75
66381;BME280;53177;52.648;1.214;2024-01-16T10:09:04;100218.53;;;0.00;90.81
66381;BME280;53177;52.648;1.214;2024-01-16T10:11:30;100212.63;;;0.15;91.16
66381;BME280;53177;52.648;1.214;2024-01-16T10:13:58;100216.19;;;0.23;90.20
66381;BME280;53177;52.648;1.214;2024-01-16T10:16:56;100216.34;;;0.37;89.36
66381;BME280;53177;52.648;1.214;2024-01-16T10:19:23;100213.03;;;0.52;88.07
66381;BME280;53177;52.648;1.214;2024-01-16T10:21:50;100207.94;;;0.65;86.73
66381;BME280;53177;52.648;1.214;2024-01-16T10:24:16;100201.97;;;0.78;86.74
66381;BME280;53177;52.648;1.214;2024-01-16T10:26:42;100200.28;;;0.83;85.85
66381;BME280;53177;52.648;1.214;2024-01-16T10:29:07;100201.31;;;1.02;84.77
66381;BME280;53177;52.648;1.214;2024-01-16T10:31:34;100196.09;;;1.04;83.76
66381;BME280;53177;52.648;1.214;2024-01-16T10:34:00;100200.56;;;1.18;83.49
66381;BME280;53177;52.648;1.214;2024-01-16T10:36:26;100199.72;;;1.24;81.96
66381;BME280;53177;52.648;1.214;2024-01-16T10:38:51;100191.00;;;1.19;81.61
66381;BME280;53177;52.648;1.214;2024-01-16T10:41:23;100192.69;;;1.11;83.86
66381;BME280;53177;52.648;1.214;2024-01-16T10:44:05;100194.34;;;1.00;83.61
66381;BME280;53177;52.648;1.214;2024-01-16T10:46:35;100196.00;;;0.90;84.35
66381;BME280;53177;52.648;1.214;2024-01-16T10:49:04;100189.81;;;0.73;84.04
66381;BME280;53177;52.648;1.214;2024-01-16T10:51:32;100182.03;;;0.77;84.73
66381;BME280;53177;52.648;1.214;2024-01-16T10:54:02;100178.56;;;0.81;84.71
66381;BME280;53177;52.648;1.214;2024-01-16T10:56:34;100183.66;;;0.65;85.32
66381;BME280;53177;52.648;1.214;2024-01-16T10:59:23;100181.75;;;0.48;85.66
66381;BME280;53177;52.648;1.214;2024-01-16T11:01:52;100175.75;;;0.51;86.26
66381;BME280;53177;52.648;1.214;2024-01-16T11:04:20;100170.63;;;0.63;86.36
66381;BME280;53177;52.648;1.214;2024-01-16T11:06:51;100169.16;;;0.95;85.90
66381;BME280;53177;52.648;1.214;2024-01-16T11:09:18;100175.47;;;1.29;84.09
66381;BME280;53177;52.648;1.214;2024-01-16T11:11:46;100170.25;;;1.34;83.47
66381;BME280;53177;52.648;1.214;2024-01-16T11:14:13;100170.34;;;1.48;82.57
66381;BME280;53177;52.648;1.214;2024-01-16T11:16:40;100160.84;;;1.59;81.44
66381;BME280;53177;52.648;1.214;2024-01-16T11:19:08;100152.22;;;1.82;80.73
66381;BME280;53177;52.648;1.214;2024-01-16T11:21:36;100145.34;;;2.01;81.04
66381;BME280;53177;52.648;1.214;2024-01-16T11:24:02;100137.56;;;2.18;80.42
66381;BME280;53177;52.648;1.214;2024-01-16T11:26:35;100150.59;;;2.24;79.57
66381;BME280;53177;52.648;1.214;2024-01-16T11:31:53;100134.03;;;1.98;79.95
66381;BME280;53177;52.648;1.214;2024-01-16T11:37:13;100126.25;;;2.13;78.01
66381;BME280;53177;52.648;1.214;2024-01-16T11:39:39;100120.16;;;2.12;79.51
66381;BME280;53177;52.648;1.214;2024-01-16T11:42:05;100120.13;;;2.00;80.17
66381;BME280;53177;52.648;1.214;2024-01-16T11:47:06;100118.44;;;2.20;80.29
66381;BME280;53177;52.648;1.214;2024-01-16T11:49:32;100113.22;;;2.13;80.34
66381;BME280;53177;52.648;1.214;2024-01-16T11:51:59;100111.50;;;2.39;79.42
66381;BME280;53177;52.648;1.214;2024-01-16T11:54:24;100114.94;;;2.44;78.74
66381;BME280;53177;52.648;1.214;2024-01-16T11:59:42;100096.69;;;2.45;77.69
66381;BME280;53177;52.648;1.214;2024-01-16T12:02:21;100100.19;;;2.58;78.57
66381;BME280;53177;52.648;1.214;2024-01-16T12:04:53;100088.88;;;2.44;77.68
66381;BME280;53177;52.648;1.214;2024-01-16T12:07:22;100080.16;;;2.77;78.88
66381;BME280;53177;52.648;1.214;2024-01-16T12:09:47;100080.13;;;2.83;77.40
66381;BME280;53177;52.648;1.214;2024-01-16T12:12:15;100076.63;;;2.94;76.99
66381;BME280;53177;52.648;1.214;2024-01-16T12:14:40;100069.66;;;3.01;76.66
66381;BME280;53177;52.648;1.214;2024-01-16T12:17:12;100062.69;;;2.92;76.57
66381;BME280;53177;52.648;1.214;2024-01-16T12:19:39;100062.66;;;3.03;76.66
66381;BME280;53177;52.648;1.214;2024-01-16T12:22:12;100061.75;;;3.24;76.69
66381;BME280;53177;52.648;1.214;2024-01-16T12:24:38;100058.22;;;3.31;77.13
66381;BME280;53177;52.648;1.214;2024-01-16T12:27:05;100063.56;;;3.07;76.02
66381;BME280;53177;52.648;1.214;2024-01-16T12:29:31;100058.34;;;2.94;76.41
66381;BME280;53177;52.648;1.214;2024-01-16T12:32:12;100054.03;;;2.75;78.02
66381;BME280;53177;52.648;1.214;2024-01-16T12:34:58;100047.94;;;2.70;79.10
66381;BME280;53177;52.648;1.214;2024-01-16T12:37:23;100043.59;;;2.78;79.54
66381;BME280;53177;52.648;1.214;2024-01-16T12:39:49;100034.88;;;2.78;78.79
66381;BME280;53177;52.648;1.214;2024-01-16T12:42:17;100032.25;;;2.81;80.09
66381;BME280;53177;52.648;1.214;2024-01-16T12:44:43;100025.34;;;2.63;80.43
66381;BME280;53177;52.648;1.214;2024-01-16T12:47:08;100026.22;;;2.65;81.45
66381;BME280;53177;52.648;1.214;2024-01-16T12:49:40;100023.66;;;2.50;80.80
66381;BME280;53177;52.648;1.214;2024-01-16T12:52:23;100021.03;;;2.50;81.88
66381;BME280;53177;52.648;1.214;2024-01-16T12:55:01;100016.66;;;2.55;81.88
66381;BME280;53177;52.648;1.214;2024-01-16T12:57:26;100007.97;;;2.49;81.60
66381;BME280;53177;52.648;1.214;2024-01-16T12:59:52;100002.75;;;2.53;81.24
66381;BME280;53177;52.648;1.214;2024-01-16T13:02:24;100002.78;;;2.50;80.86